createdAt,value
2018-08-23T00:01:27.334Z,18.52
2018-08-23T00:03:59.481Z,15.60
2018-08-23T00:06:29.401Z,15.27
2018-08-23T00:08:59.457Z,18.60
2018-08-23T00:11:32.057Z,14.87
2018-08-23T00:14:01.917Z,16.10
2018-08-23T00:16:47.592Z,16.33
2018-08-23T00:19:17.643Z,19.93
2018-08-23T00:21:48.606Z,18.43
2018-08-23T00:24:19.620Z,18.63
2018-08-23T00:26:52.625Z,17.98
2018-08-23T00:29:27.555Z,16.73
2018-08-23T00:32:00.052Z,21.05
2018-08-23T00:34:31.962Z,18.32
2018-08-23T00:37:02.496Z,16.77
2018-08-23T00:39:32.460Z,19.57
2018-08-23T00:42:06.258Z,17.50
2018-08-23T00:45:07.417Z,16.12
2018-08-23T00:47:37.315Z,13.98
2018-08-23T00:50:07.140Z,16.07
2018-08-23T00:52:46.660Z,13.72
2018-08-23T00:55:21.277Z,13.37
2018-08-23T00:57:53.525Z,14.55
2018-08-23T01:00:25.177Z,15.58
2018-08-23T01:03:02.545Z,16.60
2018-08-23T01:05:38.500Z,15.70
2018-08-23T01:08:09.922Z,15.37
2018-08-23T01:10:41.332Z,14.60
2018-08-23T01:13:11.886Z,16.42
2018-08-23T01:15:44.948Z,15.27
2018-08-23T01:18:18.889Z,14.20
2018-08-23T01:20:50.311Z,14.27
2018-08-23T01:23:20.070Z,16.10
2018-08-23T01:25:57.690Z,14.80
2018-08-23T01:28:34.177Z,14.10
2018-08-23T01:31:24.990Z,17.25
2018-08-23T01:33:57.950Z,16.63
2018-08-23T01:36:32.842Z,18.65
2018-08-23T01:39:08.286Z,18.90
2018-08-23T01:41:37.937Z,18.50
2018-08-23T01:44:08.027Z,19.87
2018-08-23T01:46:42.951Z,19.60
2018-08-23T01:49:12.698Z,21.87
2018-08-23T01:51:42.848Z,22.20
2018-08-23T01:54:12.815Z,22.22
2018-08-23T01:56:42.523Z,20.80
2018-08-23T01:59:12.437Z,22.70
2018-08-23T02:01:42.272Z,21.13
2018-08-23T02:04:12.002Z,22.30
2018-08-23T02:06:41.798Z,28.35
2018-08-23T02:09:11.975Z,22.00
2018-08-23T02:11:41.962Z,22.47
2018-08-23T02:14:11.774Z,19.77
2018-08-23T02:16:53.206Z,20.97
2018-08-23T02:19:23.262Z,42.23
2018-08-23T02:21:53.443Z,37.03
2018-08-23T02:24:30.077Z,25.90
2018-08-23T02:26:59.901Z,23.22
2018-08-23T02:29:46.342Z,25.10
2018-08-23T02:32:16.218Z,26.50
2018-08-23T02:34:47.113Z,25.70
2018-08-23T02:37:17.746Z,24.47
2018-08-23T02:39:47.957Z,26.30
2018-08-23T02:42:19.161Z,25.33
2018-08-23T02:44:49.343Z,23.20
2018-08-23T02:47:19.172Z,21.20
2018-08-23T02:49:49.023Z,22.70
2018-08-23T02:52:18.942Z,22.80
2018-08-23T02:54:49.155Z,23.73
2018-08-23T02:57:19.081Z,19.03
2018-08-23T02:59:48.905Z,25.20
2018-08-23T03:02:18.897Z,33.37
2018-08-23T03:04:48.716Z,27.60
2018-08-23T03:07:22.217Z,24.97
2018-08-23T03:09:52.023Z,24.33
2018-08-23T03:12:21.744Z,24.97
2018-08-23T03:14:51.422Z,23.87
2018-08-23T03:17:24.973Z,22.50
2018-08-23T03:20:14.591Z,24.13
2018-08-23T03:22:45.763Z,22.87
2018-08-23T03:25:16.973Z,22.98
2018-08-23T03:27:46.866Z,26.93
2018-08-23T03:30:18.714Z,25.37
2018-08-23T03:32:48.386Z,24.93
2018-08-23T03:35:18.107Z,23.93
2018-08-23T03:37:48.870Z,21.70
2018-08-23T03:40:19.090Z,22.98
2018-08-23T03:42:48.785Z,24.33
2018-08-23T03:45:23.631Z,28.40
2018-08-23T03:47:54.464Z,25.32
2018-08-23T03:50:24.267Z,25.00
2018-08-23T03:52:55.750Z,25.73
2018-08-23T03:55:26.874Z,23.80
2018-08-23T03:58:01.703Z,10.40
2018-08-23T04:00:36.769Z,12.90
2018-08-23T04:03:13.448Z,12.43
2018-08-23T04:05:43.394Z,14.83
2018-08-23T04:08:13.911Z,13.95
2018-08-23T04:10:43.980Z,15.80
2018-08-23T04:13:13.932Z,16.57
2018-08-23T04:15:44.078Z,17.77
2018-08-23T04:18:16.273Z,18.83
2018-08-23T04:20:55.353Z,16.23
2018-08-23T04:23:25.137Z,15.83
2018-08-23T04:25:55.261Z,16.00
2018-08-23T04:28:25.141Z,16.97
2018-08-23T04:30:55.197Z,16.73
2018-08-23T04:33:25.009Z,19.37
2018-08-23T04:35:55.059Z,18.20
2018-08-23T04:38:25.053Z,18.67
2018-08-23T04:40:58.968Z,18.10
2018-08-23T04:43:28.966Z,16.63
2018-08-23T04:45:58.793Z,16.50
2018-08-23T04:48:28.576Z,17.63
2018-08-23T04:50:58.553Z,18.35
2018-08-23T04:53:28.512Z,18.90
2018-08-23T04:55:58.397Z,19.43
2018-08-23T04:58:28.138Z,19.43
2018-08-23T05:00:58.017Z,22.90
2018-08-23T05:03:28.036Z,23.43
2018-08-23T05:05:58.067Z,24.07
2018-08-23T05:08:27.789Z,23.13
2018-08-23T05:10:57.457Z,20.47
2018-08-23T05:13:27.503Z,26.27
2018-08-23T05:15:57.427Z,21.23
2018-08-23T05:18:27.275Z,22.60
2018-08-23T05:20:57.328Z,26.13
2018-08-23T05:23:27.088Z,28.95
2018-08-23T05:25:59.240Z,23.98
2018-08-23T05:28:29.067Z,25.90
2018-08-23T05:30:59.044Z,26.33
2018-08-23T05:33:28.968Z,23.42
2018-08-23T05:35:59.274Z,28.17
2018-08-23T05:38:29.397Z,29.00
2018-08-23T05:41:04.414Z,30.63
2018-08-23T05:43:34.188Z,31.87
2018-08-23T05:46:04.313Z,31.37
2018-08-23T05:48:34.313Z,27.17
2018-08-23T05:51:13.968Z,29.33
2018-08-23T05:53:49.374Z,28.42
2018-08-23T05:56:20.578Z,51.47
2018-08-23T05:58:50.499Z,44.53
2018-08-23T06:01:20.283Z,41.63
2018-08-23T06:03:50.380Z,48.83
2018-08-23T06:06:20.276Z,48.70
2018-08-23T06:08:54.457Z,49.90
2018-08-23T06:11:24.309Z,48.13
2018-08-23T06:13:54.166Z,49.25
2018-08-23T06:16:24.258Z,47.40
2018-08-23T06:18:54.532Z,48.47
2018-08-23T06:21:24.454Z,60.40
2018-08-23T06:23:55.902Z,59.23
2018-08-23T06:26:39.255Z,54.67
2018-08-23T06:29:10.739Z,51.17
2018-08-23T06:31:51.259Z,54.57
2018-08-23T06:34:21.100Z,56.97
2018-08-23T06:36:51.082Z,56.63
2018-08-23T06:39:20.873Z,58.60
2018-08-23T06:42:25.181Z,52.50
2018-08-23T06:44:56.042Z,57.05
2018-08-23T06:47:27.128Z,54.03
2018-08-23T06:49:56.988Z,60.33
2018-08-23T06:52:39.313Z,53.47
2018-08-23T06:55:14.047Z,52.00
2018-08-23T06:57:49.848Z,56.05
2018-08-23T07:00:25.589Z,57.73
2018-08-23T07:02:55.687Z,58.07
2018-08-23T07:05:25.552Z,57.90
2018-08-23T07:07:55.572Z,62.10
2018-08-23T07:10:25.368Z,55.20
2018-08-23T07:12:56.760Z,63.43
2018-08-23T07:15:26.917Z,59.95
2018-08-23T07:17:56.880Z,60.60
2018-08-23T07:20:26.703Z,63.00
2018-08-23T07:22:56.333Z,69.05
2018-08-23T07:25:26.402Z,57.33
2018-08-23T07:27:56.483Z,57.97
2018-08-23T07:30:26.353Z,54.67
2018-08-23T07:32:56.601Z,50.77
2018-08-23T07:35:26.257Z,53.50
2018-08-23T07:37:55.953Z,57.48
2018-08-23T07:40:25.852Z,57.63
2018-08-23T07:42:56.151Z,56.47
2018-08-23T07:45:25.778Z,50.10
2018-08-23T07:47:56.681Z,52.55
2018-08-23T07:50:27.087Z,47.60
2018-08-23T07:52:56.987Z,50.40
2018-08-23T07:55:26.642Z,57.07
2018-08-23T07:57:56.504Z,51.23
2018-08-23T08:00:30.784Z,45.00
2018-08-23T08:03:00.808Z,44.83
2018-08-23T08:05:32.304Z,40.83
2018-08-23T08:08:02.142Z,39.50
2018-08-23T08:10:38.754Z,41.57
2018-08-23T08:13:08.493Z,43.90
2018-08-23T08:15:38.811Z,37.67
2018-08-23T08:18:19.983Z,34.70
2018-08-23T08:20:56.549Z,30.50
2018-08-23T08:23:26.427Z,33.65
2018-08-23T08:25:56.235Z,33.25
2018-08-23T08:28:26.218Z,30.07
2018-08-23T08:30:59.537Z,44.20
2018-08-23T08:33:36.162Z,35.40
2018-08-23T08:36:06.682Z,36.93
2018-08-23T08:38:37.029Z,30.67
2018-08-23T08:41:07.013Z,25.47
2018-08-23T08:43:37.084Z,24.80
2018-08-23T08:46:07.098Z,26.73
2018-08-23T08:48:37.019Z,27.32
2018-08-23T08:51:16.761Z,23.65
2018-08-23T08:53:47.072Z,24.35
2018-08-23T08:56:22.103Z,30.52
2018-08-23T08:58:52.910Z,21.30
2018-08-23T09:01:22.849Z,23.30
2018-08-23T09:03:52.877Z,23.47
2018-08-23T09:06:24.244Z,19.87
2018-08-23T09:08:54.108Z,21.93
2018-08-23T09:14:01.854Z,20.97
2018-08-23T09:16:31.957Z,21.17
2018-08-23T09:19:04.312Z,21.73
2018-08-23T09:21:34.679Z,18.73
2018-08-23T09:24:28.682Z,23.47
2018-08-23T09:26:58.625Z,20.75
2018-08-23T09:29:38.638Z,17.75
2018-08-23T09:32:19.104Z,15.87
2018-08-23T09:34:49.295Z,13.90
2018-08-23T09:37:19.825Z,11.38
2018-08-23T09:45:25.623Z,16.10
2018-08-23T09:47:55.399Z,21.23
2018-08-23T09:50:25.803Z,16.60
2018-08-23T09:52:55.894Z,21.53
2018-08-23T09:55:34.077Z,16.90
2018-08-23T09:58:03.853Z,16.87
2018-08-23T10:00:38.901Z,16.13
2018-08-23T10:03:13.899Z,19.77
2018-08-23T10:05:48.963Z,17.90
2018-08-23T10:08:24.091Z,17.37
2018-08-23T10:10:59.062Z,18.63
2018-08-23T10:13:34.124Z,19.07
2018-08-23T10:16:09.666Z,16.87
2018-08-23T10:18:44.998Z,15.78
2018-08-23T10:21:17.033Z,12.43
2018-08-23T10:23:46.883Z,12.43
2018-08-23T10:26:30.888Z,15.13
2018-08-23T10:29:00.850Z,11.83
2018-08-23T10:31:30.792Z,15.98
2018-08-23T10:34:00.811Z,12.18
2018-08-23T10:36:30.879Z,11.90
2018-08-23T10:39:00.855Z,17.00
2018-08-23T10:41:30.865Z,14.55
2018-08-23T10:44:00.599Z,12.73
2018-08-23T10:46:34.670Z,12.55
2018-08-23T10:49:04.736Z,16.77
2018-08-23T10:51:34.732Z,18.10
2018-08-23T10:54:04.698Z,15.38
2018-08-23T10:56:34.698Z,13.73
2018-08-23T10:59:04.863Z,12.03
2018-08-23T11:01:34.664Z,16.87
2018-08-23T11:04:05.792Z,14.18
2018-08-23T11:06:37.547Z,12.33
2018-08-23T11:09:13.942Z,11.30
2018-08-23T11:11:43.615Z,11.85
2018-08-23T11:14:53.822Z,12.60
2018-08-23T11:17:29.088Z,22.67
2018-08-23T11:21:05.304Z,15.97
2018-08-23T11:23:35.344Z,11.77
2018-08-23T11:26:05.457Z,14.13
2018-08-23T11:28:35.554Z,14.17
2018-08-23T11:31:05.479Z,10.17
2018-08-23T11:33:35.632Z,11.88
2018-08-23T11:36:05.619Z,10.13
2018-08-23T11:38:35.533Z,10.35
2018-08-23T11:41:05.646Z,10.18
2018-08-23T11:43:35.609Z,9.48
2018-08-23T11:46:10.837Z,11.20
2018-08-23T11:48:41.261Z,11.13
2018-08-23T11:51:11.544Z,12.95
2018-08-23T11:53:41.746Z,10.27
2018-08-23T11:56:11.678Z,11.60
2018-08-23T11:58:42.202Z,8.68
2018-08-23T12:01:13.290Z,11.50
2018-08-23T12:03:43.720Z,11.70
2018-08-23T12:06:14.660Z,7.50
2018-08-23T12:08:44.706Z,8.97
2018-08-23T12:11:14.614Z,9.50
2018-08-23T12:13:49.573Z,9.13
2018-08-23T12:16:19.734Z,9.17
2018-08-23T12:18:50.083Z,9.40
2018-08-23T12:21:20.054Z,9.53
2018-08-23T12:23:50.034Z,7.12
2018-08-23T12:26:19.792Z,8.68
2018-08-23T12:28:54.684Z,8.33
2018-08-23T12:31:24.698Z,9.30
2018-08-23T12:33:54.764Z,9.63
2018-08-23T12:36:29.645Z,6.90
2018-08-23T12:39:04.662Z,6.70
2018-08-23T12:41:39.603Z,6.78
2018-08-23T12:44:09.577Z,7.20
2018-08-23T12:46:39.496Z,8.53
2018-08-23T12:49:09.430Z,6.42
2018-08-23T12:51:39.323Z,6.62
2018-08-23T12:54:09.297Z,7.10
2018-08-23T12:56:39.179Z,8.20
2018-08-23T12:59:09.019Z,6.17
2018-08-23T13:01:38.887Z,5.87
2018-08-23T13:04:08.955Z,6.50
2018-08-23T13:06:38.920Z,10.80
2018-08-23T13:09:08.682Z,4.87
2018-08-23T13:11:39.047Z,7.57
2018-08-23T13:14:09.903Z,10.90
2018-08-23T13:16:39.774Z,4.73
2018-08-23T13:19:09.763Z,5.90
2018-08-23T13:21:39.844Z,5.83
2018-08-23T13:24:09.748Z,4.53
2018-08-23T13:26:45.438Z,10.17
2018-08-23T13:29:15.595Z,5.63
2018-08-23T13:31:45.683Z,6.33
2018-08-23T13:34:15.789Z,5.63
2018-08-23T13:36:45.827Z,7.40
2018-08-23T13:39:15.944Z,5.07
2018-08-23T13:41:45.654Z,5.33
2018-08-23T13:44:15.467Z,6.37
2018-08-23T13:46:45.438Z,5.93
2018-08-23T13:49:15.453Z,5.03
2018-08-23T13:51:45.412Z,6.92
2018-08-23T13:54:15.498Z,7.60
2018-08-23T13:56:45.489Z,6.45
2018-08-23T13:59:15.352Z,8.97
2018-08-23T14:01:45.050Z,5.60
2018-08-23T14:04:14.938Z,7.33
2018-08-23T14:06:44.829Z,7.47
2018-08-23T14:09:14.757Z,7.73
2018-08-23T14:11:44.625Z,6.90
2018-08-23T14:14:14.558Z,5.97
2018-08-23T14:16:44.858Z,11.95
2018-08-23T14:19:14.937Z,7.60
2018-08-23T14:21:45.025Z,7.43
2018-08-23T14:24:14.931Z,5.00
2018-08-23T14:26:45.056Z,7.20
2018-08-23T14:29:16.066Z,6.07
2018-08-23T14:36:38.794Z,6.97
2018-08-23T14:39:11.480Z,4.03
2018-08-23T14:41:41.628Z,6.70
2018-08-23T14:44:12.187Z,7.93
2018-08-23T14:46:47.412Z,7.55
2018-08-23T14:49:35.722Z,6.07
2018-08-23T14:52:06.807Z,6.40
2018-08-23T14:54:43.789Z,6.50
2018-08-23T14:57:19.090Z,6.17
2018-08-23T14:59:48.910Z,8.03
2018-08-23T15:02:18.882Z,8.80
2018-08-23T15:04:49.530Z,6.27
2018-08-23T15:07:19.564Z,4.65
2018-08-23T15:09:49.565Z,6.93
2018-08-23T15:12:19.466Z,5.70
2018-08-23T15:14:49.329Z,8.48
2018-08-23T15:17:19.233Z,4.90
2018-08-23T15:19:49.025Z,9.53
2018-08-23T15:22:19.246Z,9.93
2018-08-23T15:24:49.088Z,9.73
2018-08-23T15:27:19.123Z,8.67
2018-08-23T15:29:49.084Z,8.67
2018-08-23T15:32:19.519Z,6.87
2018-08-23T15:34:49.489Z,10.77
2018-08-23T15:37:19.484Z,9.93
2018-08-23T15:39:49.556Z,7.47
2018-08-23T15:42:20.592Z,9.37
2018-08-23T15:44:50.471Z,9.77
2018-08-23T15:47:20.264Z,9.27
2018-08-23T15:49:50.252Z,9.47
2018-08-23T15:52:20.210Z,10.23
2018-08-23T15:54:50.116Z,9.03
2018-08-23T15:57:19.982Z,10.37
2018-08-23T15:59:50.034Z,9.07
2018-08-23T16:02:20.151Z,9.73
2018-08-23T16:04:50.328Z,12.50
2018-08-23T16:07:20.416Z,13.47
2018-08-23T16:09:50.506Z,13.00
2018-08-23T16:12:20.421Z,13.70
2018-08-23T16:14:50.412Z,10.53
2018-08-23T16:17:25.573Z,9.03
2018-08-23T16:20:01.001Z,12.90
2018-08-23T16:22:31.149Z,9.70
2018-08-23T16:25:01.291Z,9.43
2018-08-23T16:27:31.353Z,11.43
2018-08-23T16:30:01.490Z,11.43
2018-08-23T16:32:35.422Z,12.70
2018-08-23T16:35:05.357Z,12.60
2018-08-23T16:37:35.963Z,9.83
2018-08-23T16:40:06.364Z,13.93
2018-08-23T16:42:36.458Z,6.63
2018-08-23T16:45:06.415Z,7.87
2018-08-23T16:47:36.372Z,11.23
2018-08-23T16:50:06.313Z,8.67
2018-08-23T16:52:36.650Z,7.17
2018-08-23T16:55:06.957Z,9.43
2018-08-23T16:57:37.005Z,7.27
2018-08-23T17:00:06.960Z,7.97
2018-08-23T17:02:37.059Z,10.70
2018-08-23T17:05:07.360Z,8.70
2018-08-23T17:07:37.294Z,8.03
2018-08-23T17:10:07.272Z,9.47
2018-08-23T17:12:37.353Z,9.73
2018-08-23T17:15:11.850Z,11.37
2018-08-23T17:17:45.244Z,8.53
2018-08-23T17:20:16.374Z,7.10
2018-08-23T17:22:46.349Z,11.93
2018-08-23T17:25:16.262Z,7.50
2018-08-23T17:27:46.323Z,9.53
2018-08-23T17:30:16.455Z,9.30
2018-08-23T17:32:46.633Z,9.95
2018-08-23T17:35:16.727Z,10.88
2018-08-23T17:37:46.558Z,12.43
2018-08-23T17:40:16.506Z,10.00
2018-08-23T17:42:46.417Z,14.23
2018-08-23T17:45:16.873Z,10.57
2018-08-23T17:47:48.077Z,11.33
2018-08-23T17:50:18.944Z,13.80
2018-08-23T17:52:49.345Z,13.67
2018-08-23T17:55:19.640Z,8.37
2018-08-23T17:57:49.660Z,15.90
2018-08-23T18:00:19.590Z,13.13
2018-08-23T18:02:49.615Z,13.07
2018-08-23T18:05:19.571Z,12.03
2018-08-23T18:07:49.431Z,15.10
2018-08-23T18:10:19.531Z,15.80
2018-08-23T18:12:49.290Z,17.27
2018-08-23T18:15:19.011Z,9.37
2018-08-23T18:17:48.989Z,12.50
2018-08-23T18:20:19.067Z,14.68
2018-08-23T18:22:49.171Z,15.85
2018-08-23T18:25:19.276Z,12.45
2018-08-23T18:27:49.414Z,14.87
2018-08-23T18:30:19.578Z,13.00
2018-08-23T18:32:49.578Z,13.07
2018-08-23T18:35:19.706Z,11.53
2018-08-23T18:37:49.928Z,13.43
2018-08-23T18:40:20.008Z,10.03
2018-08-23T18:42:50.095Z,10.25
2018-08-23T18:45:20.175Z,13.55
2018-08-23T18:47:50.043Z,11.80
2018-08-23T18:50:19.894Z,11.10
2018-08-23T18:52:50.024Z,8.53
2018-08-23T18:55:19.924Z,10.17
2018-08-23T18:57:51.183Z,11.27
2018-08-23T19:00:21.526Z,9.83
2018-08-23T19:02:51.466Z,10.37
2018-08-23T19:05:21.508Z,9.90
2018-08-23T19:07:51.728Z,9.77
2018-08-23T19:10:21.907Z,7.77
2018-08-23T19:12:52.243Z,8.77
2018-08-23T19:16:31.848Z,7.73
2018-08-23T19:19:02.028Z,6.17
2018-08-23T19:21:32.642Z,6.28
2018-08-23T19:24:03.412Z,8.38
2018-08-23T19:26:33.697Z,5.03
2018-08-23T19:29:03.919Z,6.40
2018-08-23T19:31:34.018Z,6.13
2018-08-23T19:34:04.368Z,9.03
2018-08-23T19:36:34.279Z,5.90
2018-08-23T19:39:05.797Z,5.67
2018-08-23T19:41:35.737Z,7.90
2018-08-23T19:44:05.998Z,5.20
2018-08-23T19:46:41.028Z,6.83
2018-08-23T19:49:16.133Z,4.65
2018-08-23T19:51:46.312Z,5.17
2018-08-23T19:54:17.506Z,4.87
2018-08-23T19:56:48.775Z,7.03
2018-08-23T19:59:20.145Z,5.87
2018-08-23T20:01:51.437Z,6.27
2018-08-23T20:04:22.138Z,6.80
2018-08-23T20:06:52.411Z,5.70
2018-08-23T20:09:22.315Z,7.33
2018-08-23T20:11:52.351Z,9.53
2018-08-23T20:14:22.340Z,5.97
2018-08-23T20:16:52.889Z,5.00
2018-08-23T20:19:23.098Z,6.40
2018-08-23T20:21:53.352Z,8.87
2018-08-23T20:24:23.520Z,7.50
2018-08-23T20:26:53.589Z,6.60
2018-08-23T20:29:24.124Z,6.67
2018-08-23T20:31:54.573Z,6.93
2018-08-23T20:34:25.339Z,7.15
2018-08-23T20:36:55.726Z,6.97
2018-08-23T20:39:26.502Z,7.35
2018-08-23T20:41:56.677Z,9.95
2018-08-23T20:44:27.167Z,7.80
2018-08-23T20:46:57.922Z,7.47
2018-08-23T20:49:28.007Z,8.43
2018-08-23T20:51:58.173Z,7.37
2018-08-23T20:54:28.310Z,6.53
2018-08-23T20:56:58.425Z,6.67
2018-08-23T20:59:28.417Z,8.07
2018-08-23T21:01:58.285Z,8.07
2018-08-23T21:04:28.405Z,6.97
2018-08-23T21:06:58.503Z,6.00
2018-08-23T21:09:28.574Z,9.00
2018-08-23T21:11:58.914Z,6.53
2018-08-23T21:14:28.872Z,9.50
2018-08-23T21:16:58.719Z,7.70
2018-08-23T21:19:28.746Z,7.30
2018-08-23T21:21:58.592Z,5.57
2018-08-23T21:24:28.698Z,6.53
2018-08-23T21:26:58.895Z,8.87
2018-08-23T21:29:28.994Z,6.57
2018-08-23T21:31:59.144Z,8.40
2018-08-23T21:34:29.217Z,5.53
2018-08-23T21:36:59.014Z,5.63
2018-08-23T21:39:29.009Z,5.50
2018-08-23T21:41:58.734Z,6.60
2018-08-23T21:44:28.683Z,5.93
2018-08-23T21:46:58.657Z,7.57
2018-08-23T21:49:28.940Z,4.95
2018-08-23T21:51:58.894Z,7.23
2018-08-23T21:54:28.915Z,4.80
2018-08-23T21:56:58.874Z,4.50
2018-08-23T21:59:28.697Z,7.97
2018-08-23T22:02:30.989Z,4.25
2018-08-23T22:05:00.998Z,3.63
2018-08-23T22:07:30.860Z,5.35
2018-08-23T22:10:00.769Z,3.90
2018-08-23T22:12:30.727Z,3.97
2018-08-23T22:15:00.543Z,5.33
2018-08-23T22:17:30.477Z,5.43
2018-08-23T22:20:01.381Z,4.43
2018-08-23T22:22:31.582Z,4.40
2018-08-23T22:25:01.703Z,4.33
2018-08-23T22:27:31.802Z,3.17
2018-08-23T22:30:01.774Z,6.00
2018-08-23T22:32:31.943Z,4.03
2018-08-23T22:35:01.814Z,4.97
2018-08-23T22:37:31.995Z,3.35
2018-08-23T22:40:01.894Z,5.53
2018-08-23T22:42:32.779Z,3.27
2018-08-23T22:45:02.937Z,5.20
2018-08-23T22:47:33.354Z,3.90
2018-08-23T22:50:03.444Z,4.30
2018-08-23T22:52:33.223Z,4.23
2018-08-23T22:55:03.303Z,4.90
2018-08-23T22:57:33.212Z,3.40
2018-08-23T23:00:03.903Z,4.90
2018-08-23T23:02:39.739Z,2.87
2018-08-23T23:05:10.728Z,3.00
2018-08-23T23:07:40.369Z,3.60
2018-08-23T23:10:10.375Z,2.62
2018-08-23T23:12:40.168Z,4.80
2018-08-23T23:15:15.634Z,2.72
2018-08-23T23:17:45.577Z,4.27
2018-08-23T23:20:15.706Z,6.13
2018-08-23T23:22:45.518Z,3.63
2018-08-23T23:25:15.343Z,3.30
2018-08-23T23:27:45.448Z,5.27
2018-08-23T23:30:15.372Z,3.70
2018-08-23T23:32:45.248Z,3.90
2018-08-23T23:35:15.157Z,4.07
2018-08-23T23:37:45.329Z,2.93
2018-08-23T23:40:15.183Z,1.97
2018-08-23T23:42:45.085Z,4.57
2018-08-23T23:45:15.071Z,4.10
2018-08-23T23:47:45.121Z,2.40
2018-08-23T23:50:15.089Z,4.83
2018-08-23T23:52:44.977Z,2.65
2018-08-23T23:55:14.878Z,4.15
2018-08-23T23:57:44.621Z,4.93
